Historyczne dane pomiarowe

Dodano dane terminowe – wersja testowa.

Dane z okresu 1951-2019

Wersja bazy: 1.34 [2019-03-16, lista zmian], aktualizacja planowana na 2019-04-15

Dane meteo z obszaru Polski uzyskane na podstawie danych udostępnionych przez Instytut Meteorologii i Gospodarki Wodnej – Państwowy Instytut Badawczy.

 

Wybierz Datę:    

       

TemperaturaWilgotnośćWiatrCiśnienieOpadyŚniegCzas trwania zjawisk
 Stacja t tx tn tng RH VA  wxwx mslp ppp RRR   cm mm wxwxwxwxwxwxwx
1994-08-14 14.1 17.6 10.9 10.9 75.5- 6.0 8.0---- 1.0------------
1994-08-13 17.1 23.4 13.4 11.1 90.0- 6.0 1.3---- 1.9------------
1994-08-12 17.3 21.6 11.9 9.6 73.8- 5.3 2.7---- 0.0------------
1994-08-11 19.0 25.0 11.7 8.3 62.0- 3.3 2.3---- 0.0------------
1994-08-10 19.7 25.2 15.6 14.4 67.3- 2.0 4.0---- 0.0------------
1994-08-09 19.3 25.0 13.2 11.1 77.0- 6.7 1.3---- 4.6------------
1994-08-08 19.8 24.6 14.8 12.6 72.0- 6.3 1.0---- 0.8------------
1994-08-07 21.7 27.0 18.4 17.0 70.5- 5.0 4.0---- 0.0------------
1994-08-06 25.1 33.5 17.1 14.9 57.3- 5.0 3.0---- 0.3------------
1994-08-05 24.4 31.6 17.1 14.7 66.3- 4.0 1.0---- 0.0------------
1994-08-04 23.5 30.3 16.9 14.6 66.0- 4.0 1.7---- 0.0------------
1994-08-03 22.6 28.2 17.9 15.8 72.8- 7.0 1.0---- 0.0------------
1994-08-02 25.3 32.8 18.1 14.9 62.0- 0.3 1.3---- 1.7------------
1994-08-01 24.8 32.4 18.8 16.2 65.3- 5.0 2.3---- 0.2------------
1994-07-31 28.4 35.6 19.2 16.8 45.0- 2.0 1.0---- 0.0------------
1994-07-30 27.1 34.6 17.8 15.3 50.0- 2.3 1.3---- 0.0------------
1994-07-29 26.5 33.4 14.7 13.8 51.5- 1.0 0.7---- 0.0------------
1994-07-28 24.7 32.6 14.8 13.9 47.8- 1.3 1.0---- 0.0------------
1994-07-27 24.3 31.9 15.3 12.3 49.3- 2.0 2.0---- 0.0------------
1994-07-26 24.8 30.4 17.2 14.5 44.5- 2.3 1.0---- 0.0------------
1994-07-25 23.2 29.4 13.8 10.9 53.8- 3.7 1.0---- 0.0------------
1994-07-24 22.2 28.8 13.0 9.7 50.0- 2.0 0.7---- 0.0------------
1994-07-23 20.6 27.4 11.7 9.1 64.8- 4.3 1.7---- 0.0------------
1994-07-22 19.3 25.4 11.9 9.7 71.0- 3.3 2.3---- 0.0------------
1994-07-21 19.5 26.2 12.3 9.4 63.5- 2.0 5.3---- 0.0------------
1994-07-20 17.2 22.6 9.4 6.6 64.8- 3.7 2.0---- 0.0------------
1994-07-19 16.1 21.0 10.9 9.1 68.0- 2.3 4.3---- 0.0------------
1994-07-18 17.4 23.2 12.1 9.9 62.0- 4.3 3.0---- 0.0------------
1994-07-17 20.3 24.6 16.3 14.9 69.0- 6.0 2.7---- 0.0------------
1994-07-16 24.6 31.6 15.9 12.8 59.8- 4.0 2.7---- 0.0------------
1994-07-15 25.5 30.6 15.8 12.9 50.8- 1.0 2.0---- 0.0------------
1994-07-14 25.5 31.0 19.7 17.8 49.0- 1.0 2.3---- 0.0------------
1994-07-13 25.0 30.4 17.9 14.4 51.0- 4.3 2.7---- 0.0------------
1994-07-12 23.9 30.0 16.2 13.3 54.0- 4.0 0.7---- 0.0------------
1994-07-11 22.4 28.6 14.1 11.7 56.5- 2.7 1.7---- 0.0------------
1994-07-10 20.2 26.6 12.4 9.7 68.5- 2.7 3.0---- 0.0------------
1994-07-09 16.8 22.0 12.6 11.6 75.5- 6.3 2.0---- 0.0------------
1994-07-08 18.2 25.2 12.6 9.4 64.8- 5.7 1.7---- 10.2------------
1994-07-07 17.8 23.4 8.9 6.6 57.3- 2.3 0.7---- 0.0------------
1994-07-06 17.7 22.3 10.8 7.2 52.0- 3.0 2.0---- 0.0------------
1994-07-05 16.9 22.8 8.9 6.8 61.0- 2.0 2.3---- 0.0------------
1994-07-04 17.4 24.4 11.3 8.9 62.8- 4.0 3.0---- 0.0------------
1994-07-03 15.7 22.0 8.1 5.4 67.3- 3.3 3.0---- 0.0------------
1994-07-02 15.3 20.6 9.1 7.3 65.8- 1.0 5.0---- 0.0------------
1994-07-01 14.6 19.2 9.9 8.1 75.8- 5.0 6.0---- 0.0------------
1994-06-30 17.9 24.0 14.8 11.8 74.8- 6.7 4.3---- 4.0------------
1994-06-29 20.2 26.0 11.9 8.4 70.3- 2.0 1.3---- 0.0------------
1994-06-28 18.0 24.6 9.8 7.9 72.5- 1.3 3.7---- 0.0------------
1994-06-27 19.4 24.2 15.1 11.8 70.0- 5.0 5.0---- 0.0------------
1994-06-26 19.5 26.4 10.3 6.6 61.3- 1.0 2.7---- 0.0------------
1994-06-25 14.9 20.6 7.3 5.3 66.5- 1.3 2.0---- 0.0------------
1994-06-24 11.5 15.2 9.1 7.5 64.8- 6.0 11.3---- 0.0------------
1994-06-23 12.2 16.6 8.1 5.4 74.3- 7.0 12.0---- 2.3------------
1994-06-22 15.6 21.4 10.3 7.3 75.0- 7.3 8.0---- 0.2------------
1994-06-21 13.9 19.8 8.1 6.2 74.3- 3.3 2.0---- 0.0------------
1994-06-20 12.2 14.6 9.8 9.7 75.3- 5.3 7.3---- 0.0------------
1994-06-19 11.3 13.8 9.6 9.1 96.5- 8.0 4.3---- 4.3------------
1994-06-18 10.4 15.6 3.8 1.1 71.0- 6.0 4.0---- 2.4------------
1994-06-17 8.1 12.6 4.9 2.4 84.3- 6.0 5.0---- 3.5------------
1994-06-16 8.7 13.6 6.8 4.4 86.0- 5.7 3.0---- 4.6------------
232.6 ms

 

Źródłem pochodzenia danych jest Instytut Meteorologii i Gospodarki Wodnej – Państwowy Instytut Badawczy. Dane Instytutu Meteorologii i Gospodarki Wodnej – Państwowego Instytutu Badawczego zostały przetworzone.

Dane źródłowe można odnaleźć na stronie https://dane.imgw.pl